createdAt,value
2018-06-30T16:11:20.496Z,2.67
2018-06-30T16:13:48.948Z,8.40
2018-06-30T16:16:17.276Z,6.87
2018-06-30T16:18:45.607Z,10.13
2018-06-30T16:21:13.984Z,6.13
2018-06-30T16:23:42.335Z,5.73
2018-06-30T16:26:10.735Z,4.80
2018-06-30T16:28:39.069Z,2.90
2018-06-30T16:31:07.371Z,2.70
2018-06-30T16:33:35.711Z,2.30
2018-06-30T16:36:04.031Z,2.40
2018-06-30T16:38:32.328Z,2.20
2018-06-30T16:41:00.663Z,2.30
2018-06-30T16:43:28.962Z,2.47
2018-06-30T16:45:57.260Z,2.00
2018-06-30T16:48:25.556Z,2.40
2018-06-30T16:50:53.893Z,2.20
2018-06-30T16:53:23.304Z,1.90
2018-06-30T16:55:52.360Z,1.77
2018-06-30T16:58:21.468Z,2.00
2018-06-30T17:00:50.574Z,2.37
2018-06-30T17:03:19.672Z,2.10
2018-06-30T17:05:48.756Z,1.90
2018-06-30T17:08:17.860Z,2.60
2018-06-30T17:10:46.935Z,1.83
2018-06-30T17:13:16.007Z,1.63
2018-06-30T17:15:45.308Z,1.83
2018-06-30T17:18:14.375Z,1.53
2018-06-30T17:20:43.458Z,1.47
2018-06-30T17:23:12.692Z,1.33
2018-06-30T17:25:41.755Z,2.07
2018-06-30T17:28:10.816Z,1.50
2018-06-30T17:30:39.912Z,1.13
2018-06-30T17:33:08.983Z,1.30
2018-06-30T17:35:38.060Z,1.00
2018-06-30T17:41:20.348Z,1.40
2018-06-30T17:43:49.549Z,1.20
2018-06-30T17:46:18.710Z,1.13
2018-06-30T17:48:47.836Z,1.07
2018-06-30T18:41:31.272Z,0.60
2018-06-30T18:44:00.093Z,0.80
2018-06-30T18:46:29.126Z,0.70
2018-06-30T18:48:58.328Z,0.67
2018-06-30T19:36:20.588Z,0.90
2018-06-30T19:41:02.458Z,0.97
2018-06-30T19:43:31.584Z,1.03
2018-06-30T19:46:00.718Z,0.93
2018-06-30T19:48:29.833Z,0.90
2018-06-30T19:50:58.961Z,1.00
2018-06-30T19:53:28.099Z,1.10
2018-06-30T19:55:57.240Z,0.90
2018-06-30T19:58:26.316Z,1.10
2018-06-30T20:00:55.402Z,1.13
2018-06-30T20:03:24.580Z,1.13
2018-06-30T20:15:07.530Z,1.00
2018-06-30T20:17:36.386Z,1.27
2018-06-30T20:20:05.099Z,1.23
2018-06-30T20:22:34.040Z,1.10
2018-06-30T20:25:03.137Z,1.30
2018-06-30T20:27:32.208Z,1.10
2018-06-30T20:30:01.309Z,0.80
2018-06-30T20:32:30.669Z,1.17
2018-06-30T20:34:59.873Z,1.00
2018-06-30T20:37:28.967Z,1.00
2018-06-30T20:39:58.072Z,1.00
2018-06-30T20:42:27.147Z,0.60
2018-06-30T20:44:56.316Z,0.63
2018-06-30T20:47:25.392Z,0.80
2018-06-30T20:49:54.453Z,0.70
2018-06-30T20:52:23.552Z,0.70
2018-06-30T20:54:52.683Z,0.90
2018-06-30T20:57:21.770Z,1.00
2018-06-30T20:59:50.861Z,0.90
2018-06-30T21:02:19.945Z,0.90
2018-06-30T21:04:49.045Z,0.87
2018-06-30T21:07:18.140Z,0.80
2018-06-30T21:09:47.235Z,1.00
2018-06-30T21:12:16.299Z,0.60
2018-06-30T21:14:45.403Z,0.90
2018-06-30T21:17:14.488Z,1.10
2018-06-30T21:19:43.594Z,1.10
2018-06-30T21:22:12.857Z,1.10
2018-06-30T21:24:41.934Z,0.90
2018-06-30T21:27:11.013Z,1.30
2018-06-30T21:29:40.097Z,0.90
2018-06-30T21:32:09.167Z,0.80
2018-06-30T21:34:38.230Z,1.00
2018-06-30T21:37:07.324Z,0.90
2018-06-30T21:39:36.388Z,0.83
2018-06-30T21:42:05.449Z,0.70
2018-06-30T21:44:34.571Z,1.20
2018-06-30T21:47:03.659Z,1.03
2018-06-30T21:49:32.727Z,0.83
2018-06-30T21:52:01.781Z,1.00
2018-06-30T21:54:30.875Z,0.97
2018-06-30T21:56:59.953Z,0.80
2018-06-30T21:59:29.040Z,0.87
2018-06-30T22:01:58.113Z,0.90
2018-06-30T22:04:27.182Z,0.70
2018-06-30T22:06:56.297Z,0.70
2018-06-30T22:09:25.427Z,0.93
2018-06-30T22:11:54.500Z,0.70
2018-06-30T22:14:23.580Z,1.40
2018-06-30T22:16:52.623Z,0.67
2018-06-30T22:19:21.713Z,0.87
2018-06-30T22:21:50.775Z,0.70
2018-06-30T22:24:19.848Z,0.50
2018-06-30T22:26:48.932Z,0.90
2018-06-30T22:29:17.726Z,1.07
2018-06-30T22:31:46.657Z,0.60
2018-06-30T22:34:15.743Z,0.80
2018-06-30T22:36:44.799Z,0.77
2018-06-30T22:39:13.844Z,0.80
2018-06-30T22:41:42.950Z,0.70
2018-06-30T22:44:11.983Z,0.80
2018-06-30T22:46:40.799Z,0.90
2018-06-30T22:49:09.743Z,0.80
2018-06-30T22:51:38.800Z,0.57
2018-06-30T22:54:07.857Z,0.70
2018-06-30T22:56:36.906Z,0.77
2018-06-30T22:59:05.988Z,0.80
2018-06-30T23:01:35.110Z,1.20
2018-06-30T23:04:04.167Z,0.83
2018-06-30T23:06:33.215Z,0.70
2018-06-30T23:09:02.267Z,0.87
2018-06-30T23:11:31.318Z,0.63
2018-06-30T23:14:00.381Z,0.90
2018-06-30T23:16:29.464Z,0.83
2018-06-30T23:18:58.508Z,0.80
2018-06-30T23:21:27.308Z,1.20
2018-06-30T23:23:56.264Z,0.70
2018-06-30T23:26:25.308Z,0.80
2018-06-30T23:28:54.376Z,0.87
2018-06-30T23:31:23.444Z,0.70
2018-06-30T23:33:52.515Z,0.90
2018-06-30T23:36:21.587Z,0.60
2018-06-30T23:38:50.647Z,0.77
2018-06-30T23:41:19.723Z,0.67
2018-06-30T23:43:48.780Z,0.70
2018-06-30T23:46:17.849Z,0.90
2018-06-30T23:48:46.639Z,0.80
2018-06-30T23:51:15.571Z,0.70
2018-06-30T23:53:44.648Z,0.70
2018-06-30T23:56:13.706Z,0.70
2018-06-30T23:58:42.760Z,0.70
